Terminal Aerodrome Forecast
Issued by NWS

Home | Current Version | Previous Version | Text Only | Print | Product List | Glossary On
Versions: 1 2 3 4 5 6 7 8 9 10 11 12 13 14
809
FTUS42 KMLB 021120
TAFTIX
TAF
KTIX 021120Z 0212/0312 19004KT P6SM FEW015 SCT040
     FM021400 17007KT P6SM FEW040 SCT250
     FM021800 12011KT P6SM SCT035 SCT250
     FM030200 20004KT P6SM SCT035 SCT250=

USA.gov is the U.S. government's official web portal to all federal, state and local government web resources and services.